createdAt,value
2019-02-16T00:03:22.536Z,9.93
2019-02-16T00:08:24.889Z,12.73
2019-02-16T00:13:29.487Z,11.27
2019-02-16T00:18:33.731Z,11.63
2019-02-16T00:23:36.051Z,10.67
2019-02-16T00:28:39.564Z,11.27
2019-02-16T00:33:43.272Z,13.13
2019-02-16T00:38:45.444Z,20.17
2019-02-16T00:43:48.920Z,18.53
2019-02-16T00:48:53.017Z,14.33
2019-02-16T00:53:56.502Z,15.70
2019-02-16T00:58:58.678Z,14.70
2019-02-16T01:04:00.935Z,12.60
2019-02-16T01:09:04.724Z,11.83
2019-02-16T01:14:06.991Z,12.03
2019-02-16T01:19:09.200Z,12.47
2019-02-16T01:24:11.505Z,11.20
2019-02-16T01:29:13.860Z,11.33
2019-02-16T01:34:16.084Z,11.43
2019-02-16T01:39:20.596Z,10.00
2019-02-16T01:44:22.850Z,11.97
2019-02-16T01:49:25.073Z,8.90
2019-02-16T01:54:27.296Z,10.53
2019-02-16T01:59:29.546Z,10.70
2019-02-16T02:04:31.756Z,13.23
2019-02-16T02:09:34.058Z,9.57
2019-02-16T02:14:36.419Z,8.50
2019-02-16T02:19:38.677Z,10.20
2019-02-16T02:24:42.741Z,9.80
2019-02-16T02:29:44.913Z,11.57
2019-02-16T02:34:48.299Z,8.83
2019-02-16T02:39:52.421Z,8.57
2019-02-16T02:44:54.621Z,11.40
2019-02-16T02:49:56.899Z,8.73
2019-02-16T02:54:59.098Z,8.70
2019-02-16T03:00:01.421Z,6.93
2019-02-16T03:05:04.706Z,9.30
2019-02-16T03:10:08.163Z,10.23
2019-02-16T03:15:14.546Z,8.87
2019-02-16T03:20:16.756Z,9.83
2019-02-16T03:25:19.013Z,10.90
2019-02-16T03:30:40.288Z,9.17
2019-02-16T03:36:30.637Z,8.70
2019-02-16T03:41:32.946Z,10.83
2019-02-16T03:46:35.289Z,7.87
2019-02-16T03:51:39.356Z,11.37
2019-02-16T03:56:41.652Z,9.97
2019-02-16T04:01:43.977Z,14.53
2019-02-16T04:06:46.344Z,8.83
2019-02-16T04:11:48.601Z,14.20
2019-02-16T04:16:50.935Z,10.37
2019-02-16T04:21:53.251Z,8.90
2019-02-16T04:26:55.589Z,10.17
2019-02-16T04:31:57.770Z,7.10
2019-02-16T04:36:59.946Z,8.80
2019-02-16T04:42:02.116Z,8.23
2019-02-16T04:47:04.425Z,8.67
2019-02-16T04:52:06.723Z,9.27
2019-02-16T04:57:10.022Z,8.57
2019-02-16T05:02:12.233Z,8.73
2019-02-16T05:07:14.460Z,6.00
2019-02-16T05:12:16.719Z,6.77
2019-02-16T05:17:18.981Z,8.17
2019-02-16T05:22:21.247Z,7.27
2019-02-16T05:27:23.570Z,5.77
2019-02-16T05:32:25.903Z,7.03
2019-02-16T05:37:30.598Z,7.70
2019-02-16T05:42:33.030Z,9.13
2019-02-16T05:47:37.105Z,8.03
2019-02-16T05:52:39.338Z,7.77
2019-02-16T05:57:44.283Z,7.97
2019-02-16T06:02:48.518Z,7.50
2019-02-16T06:07:50.834Z,8.00
2019-02-16T06:12:54.265Z,9.17
2019-02-16T06:17:56.870Z,8.10
2019-02-16T06:23:04.410Z,7.13
2019-02-16T06:28:04.897Z,7.63
2019-02-16T06:33:08.958Z,5.57
2019-02-16T06:38:12.481Z,7.53
2019-02-16T06:43:14.557Z,6.37
2019-02-16T06:48:22.319Z,9.57
2019-02-16T06:53:24.581Z,6.33
2019-02-16T06:58:29.177Z,6.33
2019-02-16T07:03:31.396Z,6.73
2019-02-16T07:08:33.654Z,6.73
2019-02-16T07:13:38.791Z,6.40
2019-02-16T07:18:48.212Z,5.73
2019-02-16T07:23:52.236Z,9.00
2019-02-16T07:28:54.460Z,9.80
2019-02-16T07:33:57.070Z,6.27
2019-02-16T07:39:01.769Z,5.63
2019-02-16T07:44:30.170Z,6.47
2019-02-16T07:49:42.290Z,5.30
2019-02-16T07:54:53.509Z,5.10
2019-02-16T08:00:12.474Z,5.83
2019-02-16T08:05:30.957Z,5.20
2019-02-16T08:10:52.992Z,4.20
2019-02-16T08:16:32.792Z,6.70
2019-02-16T08:21:39.881Z,5.23
2019-02-16T08:27:01.751Z,6.63
2019-02-16T08:32:29.124Z,4.77
2019-02-16T08:37:52.436Z,4.00
2019-02-16T08:43:15.400Z,5.50
2019-02-16T08:48:40.129Z,5.03
2019-02-16T08:54:09.350Z,2.77
2019-02-16T08:59:34.188Z,2.37
2019-02-16T09:04:49.230Z,4.87
2019-02-16T09:10:09.953Z,3.30
2019-02-16T09:15:31.911Z,5.27
2019-02-16T09:20:52.544Z,3.50
2019-02-16T09:26:20.511Z,5.43
2019-02-16T09:31:40.682Z,6.47
2019-02-16T09:37:00.136Z,4.37
2019-02-16T09:42:17.182Z,3.67
2019-02-16T09:47:37.659Z,4.40
2019-02-16T09:52:58.152Z,4.33
2019-02-16T09:58:16.977Z,3.60
2019-02-16T10:03:38.868Z,2.47
2019-02-16T10:08:58.991Z,4.27
2019-02-16T10:14:16.281Z,4.03
2019-02-16T10:19:45.002Z,3.67
2019-02-16T10:25:11.833Z,3.10
2019-02-16T10:30:34.956Z,1.87
2019-02-16T10:35:48.937Z,2.30
2019-02-16T10:41:13.662Z,2.43
2019-02-16T10:46:34.050Z,2.30
2019-02-16T10:52:01.372Z,1.63
2019-02-16T10:57:23.250Z,2.63
2019-02-16T11:02:43.926Z,2.60
2019-02-16T11:07:52.668Z,3.70
2019-02-16T11:13:31.595Z,1.97
2019-02-16T11:18:48.805Z,3.57
2019-02-16T11:24:21.593Z,2.43
2019-02-16T11:29:43.351Z,2.93
2019-02-16T11:35:10.917Z,1.80
2019-02-16T11:40:29.334Z,7.57
2019-02-16T11:45:42.711Z,3.50
2019-02-16T11:50:54.059Z,4.90
2019-02-16T11:56:18.921Z,3.13
2019-02-16T12:01:30.252Z,1.93
2019-02-16T12:06:42.164Z,2.70
2019-02-16T12:11:54.505Z,4.50
2019-02-16T12:17:16.290Z,4.03
2019-02-16T12:22:44.251Z,2.03
2019-02-16T12:28:12.653Z,6.37
2019-02-16T12:33:26.298Z,5.07
2019-02-16T12:38:54.339Z,2.20
2019-02-16T12:44:16.187Z,3.00
2019-02-16T12:49:38.100Z,2.47
2019-02-16T12:54:54.261Z,4.10
2019-02-16T13:00:05.658Z,2.30
2019-02-16T13:05:25.970Z,1.73
2019-02-16T13:10:46.813Z,3.53
2019-02-16T13:16:16.879Z,1.73
2019-02-16T13:21:38.673Z,2.00
2019-02-16T13:26:51.021Z,2.73
2019-02-16T13:32:27.771Z,1.87
2019-02-16T13:37:41.434Z,2.67
2019-02-16T13:43:06.292Z,2.80
2019-02-16T13:48:22.963Z,2.60
2019-02-16T13:53:41.915Z,2.50
2019-02-16T13:59:09.592Z,3.67
2019-02-16T14:04:37.911Z,2.97
2019-02-16T14:09:49.895Z,3.17
2019-02-16T14:15:00.750Z,3.67
2019-02-16T14:20:03.096Z,3.63
2019-02-16T14:25:10.400Z,1.63
2019-02-16T14:30:13.554Z,3.13
2019-02-16T14:35:16.855Z,2.27
2019-02-16T14:40:20.965Z,5.27
2019-02-16T14:45:25.204Z,2.70
2019-02-16T14:50:29.046Z,1.70
2019-02-16T14:55:36.301Z,2.30
2019-02-16T15:00:42.057Z,2.50
2019-02-16T15:05:50.375Z,1.97
2019-02-16T15:10:53.723Z,2.47
2019-02-16T15:16:00.270Z,1.20
2019-02-16T15:21:02.835Z,2.20
2019-02-16T15:26:06.224Z,4.40
2019-02-16T15:31:08.489Z,3.07
2019-02-16T15:36:10.805Z,5.63
2019-02-16T15:41:12.931Z,3.37
2019-02-16T15:46:16.944Z,5.03
2019-02-16T15:51:19.237Z,3.73
2019-02-16T15:56:21.792Z,3.17
2019-02-16T16:01:24.195Z,4.60
2019-02-16T16:06:26.525Z,4.37
2019-02-16T16:11:40.629Z,5.77
2019-02-16T16:17:06.784Z,5.07
2019-02-16T16:22:28.680Z,3.43
2019-02-16T16:28:00.450Z,4.13
2019-02-16T16:33:10.451Z,4.17
2019-02-16T16:38:47.277Z,5.07
2019-02-16T16:44:12.850Z,8.10
2019-02-16T16:49:36.884Z,4.27
2019-02-16T16:54:59.178Z,4.73
2019-02-16T17:00:09.001Z,7.27
2019-02-16T17:05:49.144Z,5.97
2019-02-16T17:11:12.835Z,7.40
2019-02-16T17:16:22.524Z,6.67
2019-02-16T17:21:36.348Z,6.10
2019-02-16T17:26:46.845Z,8.70
2019-02-16T17:31:59.292Z,10.30
2019-02-16T17:37:21.157Z,8.30
2019-02-16T17:43:01.047Z,8.93
2019-02-16T17:48:25.896Z,11.93
2019-02-16T17:53:46.300Z,10.10
2019-02-16T17:59:08.095Z,9.70
2019-02-16T18:04:25.203Z,11.70
2019-02-16T18:09:44.982Z,12.03
2019-02-16T18:15:15.806Z,11.67
2019-02-16T18:20:40.530Z,11.67
2019-02-16T18:25:55.924Z,11.80
2019-02-16T18:31:16.812Z,27.70
2019-02-16T18:36:37.114Z,14.03
2019-02-16T18:41:48.760Z,12.07
2019-02-16T18:47:09.578Z,18.97
2019-02-16T18:52:49.659Z,17.73
2019-02-16T18:58:12.480Z,15.17
2019-02-16T19:03:49.917Z,16.73
2019-02-16T19:09:14.916Z,18.33
2019-02-16T19:14:55.058Z,17.93
2019-02-16T19:20:29.283Z,19.20
2019-02-16T19:25:50.000Z,19.20
2019-02-16T19:31:11.901Z,25.10
2019-02-16T19:36:27.949Z,20.80
2019-02-16T19:41:49.066Z,17.50
2019-02-16T19:47:09.888Z,20.27
2019-02-16T19:52:22.417Z,21.23
2019-02-16T19:57:46.237Z,21.13
2019-02-16T20:03:01.458Z,23.67
2019-02-16T20:08:38.420Z,22.70
2019-02-16T20:14:02.887Z,17.90
2019-02-16T20:19:30.765Z,17.17
2019-02-16T20:24:55.987Z,23.83
2019-02-16T20:30:15.732Z,17.60
2019-02-16T20:35:43.339Z,18.63
2019-02-16T20:41:17.135Z,17.43
2019-02-16T20:46:30.108Z,17.63
2019-02-16T20:51:58.923Z,16.63
2019-02-16T20:57:47.634Z,12.43
2019-02-16T21:03:20.497Z,19.73
2019-02-16T21:08:57.552Z,14.33
2019-02-16T21:14:35.925Z,19.47
2019-02-16T21:19:59.525Z,19.10
2019-02-16T21:25:27.259Z,21.13
2019-02-16T21:31:07.994Z,20.83
2019-02-16T21:36:31.811Z,14.30
2019-02-16T21:41:46.574Z,20.20
2019-02-16T21:47:24.126Z,18.90
2019-02-16T21:52:49.561Z,22.03
2019-02-16T21:58:20.225Z,16.83
2019-02-16T22:03:49.890Z,23.07
2019-02-16T22:09:10.281Z,20.17
2019-02-16T22:14:14.442Z,21.93
2019-02-16T22:19:16.769Z,19.57
2019-02-16T22:24:18.991Z,21.97
2019-02-16T22:29:21.292Z,25.07
2019-02-16T22:34:23.746Z,16.17
2019-02-16T22:39:29.024Z,23.50
2019-02-16T22:44:33.339Z,19.63
2019-02-16T22:49:35.645Z,16.47
2019-02-16T22:54:37.962Z,14.57
2019-02-16T22:59:40.307Z,13.63
2019-02-16T23:04:42.609Z,15.00
2019-02-16T23:09:45.061Z,16.20
2019-02-16T23:14:47.409Z,13.33
2019-02-16T23:19:49.661Z,17.73
2019-02-16T23:24:51.972Z,20.20
2019-02-16T23:29:58.760Z,15.17
2019-02-16T23:35:01.265Z,16.77
2019-02-16T23:40:04.074Z,18.57
2019-02-16T23:45:07.996Z,14.13
2019-02-16T23:50:12.094Z,19.87
2019-02-16T23:55:14.332Z,17.83
